sensor_id;sensor_type;location;lat;lon;timestamp;P1;durP1;ratioP1;P2;durP2;ratioP2
3997;SDS011;61314;53.444;9.902;2022-08-03T00:00:27;4.77;;;4.57;;
3997;SDS011;61314;53.444;9.902;2022-08-03T00:02:55;5.53;;;5.10;;
3997;SDS011;61314;53.444;9.902;2022-08-03T00:05:22;6.23;;;4.80;;
3997;SDS011;61314;53.444;9.902;2022-08-03T00:07:49;5.40;;;5.10;;
3997;SDS011;61314;53.444;9.902;2022-08-03T00:10:18;5.70;;;4.90;;
3997;SDS011;61314;53.444;9.902;2022-08-03T00:12:45;5.90;;;5.50;;
3997;SDS011;61314;53.444;9.902;2022-08-03T00:15:12;5.40;;;4.90;;
3997;SDS011;61314;53.444;9.902;2022-08-03T00:17:42;5.13;;;4.77;;
3997;SDS011;61314;53.444;9.902;2022-08-03T00:20:19;5.10;;;4.70;;
3997;SDS011;61314;53.444;9.902;2022-08-03T00:22:46;7.43;;;5.50;;
3997;SDS011;61314;53.444;9.902;2022-08-03T00:25:13;5.60;;;5.10;;
3997;SDS011;61314;53.444;9.902;2022-08-03T00:27:41;5.53;;;5.10;;
3997;SDS011;61314;53.444;9.902;2022-08-03T00:30:08;4.90;;;4.60;;
3997;SDS011;61314;53.444;9.902;2022-08-03T00:32:36;5.70;;;5.30;;
3997;SDS011;61314;53.444;9.902;2022-08-03T00:35:09;5.70;;;5.20;;
3997;SDS011;61314;53.444;9.902;2022-08-03T00:37:57;7.83;;;5.50;;
3997;SDS011;61314;53.444;9.902;2022-08-03T00:40:24;6.87;;;5.77;;
3997;SDS011;61314;53.444;9.902;2022-08-03T00:42:52;5.67;;;4.73;;
3997;SDS011;61314;53.444;9.902;2022-08-03T00:45:21;5.47;;;5.05;;
3997;SDS011;61314;53.444;9.902;2022-08-03T00:47:49;5.70;;;5.30;;
3997;SDS011;61314;53.444;9.902;2022-08-03T00:50:16;6.60;;;5.13;;
3997;SDS011;61314;53.444;9.902;2022-08-03T00:52:44;5.67;;;5.37;;
3997;SDS011;61314;53.444;9.902;2022-08-03T00:55:14;6.10;;;5.50;;
3997;SDS011;61314;53.444;9.902;2022-08-03T00:57:42;6.00;;;5.50;;
3997;SDS011;61314;53.444;9.902;2022-08-03T01:00:10;5.33;;;5.03;;
3997;SDS011;61314;53.444;9.902;2022-08-03T01:02:38;6.00;;;5.43;;
3997;SDS011;61314;53.444;9.902;2022-08-03T01:05:06;5.20;;;4.90;;
3997;SDS011;61314;53.444;9.902;2022-08-03T01:15:49;6.00;;;5.57;;
3997;SDS011;61314;53.444;9.902;2022-08-03T01:20:55;6.30;;;5.83;;
3997;SDS011;61314;53.444;9.902;2022-08-03T01:23:34;6.00;;;5.60;;
3997;SDS011;61314;53.444;9.902;2022-08-03T01:26:12;6.80;;;6.30;;
3997;SDS011;61314;53.444;9.902;2022-08-03T01:31:28;7.53;;;6.30;;
3997;SDS011;61314;53.444;9.902;2022-08-03T01:33:59;7.00;;;6.50;;
3997;SDS011;61314;53.444;9.902;2022-08-03T01:36:32;6.53;;;6.13;;
3997;SDS011;61314;53.444;9.902;2022-08-03T01:39:02;6.17;;;5.77;;
3997;SDS011;61314;53.444;9.902;2022-08-03T01:41:33;7.57;;;6.17;;
3997;SDS011;61314;53.444;9.902;2022-08-03T01:44:05;6.27;;;5.87;;
3997;SDS011;61314;53.444;9.902;2022-08-03T01:46:55;9.10;;;6.63;;
3997;SDS011;61314;53.444;9.902;2022-08-03T01:49:25;6.20;;;5.73;;
3997;SDS011;61314;53.444;9.902;2022-08-03T01:51:54;6.63;;;6.23;;
3997;SDS011;61314;53.444;9.902;2022-08-03T01:54:34;6.30;;;5.77;;
3997;SDS011;61314;53.444;9.902;2022-08-03T01:57:02;6.67;;;6.17;;
3997;SDS011;61314;53.444;9.902;2022-08-03T01:59:29;6.47;;;5.87;;
3997;SDS011;61314;53.444;9.902;2022-08-03T02:01:59;6.90;;;6.40;;
3997;SDS011;61314;53.444;9.902;2022-08-03T02:04:48;6.50;;;6.10;;
3997;SDS011;61314;53.444;9.902;2022-08-03T02:07:17;6.00;;;5.70;;
3997;SDS011;61314;53.444;9.902;2022-08-03T02:09:45;7.50;;;6.90;;
3997;SDS011;61314;53.444;9.902;2022-08-03T02:12:16;6.27;;;5.73;;
3997;SDS011;61314;53.444;9.902;2022-08-03T02:14:45;7.53;;;6.80;;
3997;SDS011;61314;53.444;9.902;2022-08-03T02:17:14;6.87;;;6.47;;
3997;SDS011;61314;53.444;9.902;2022-08-03T02:19:42;6.83;;;6.43;;
3997;SDS011;61314;53.444;9.902;2022-08-03T02:22:10;7.03;;;6.30;;
3997;SDS011;61314;53.444;9.902;2022-08-03T02:24:38;12.20;;;6.73;;
3997;SDS011;61314;53.444;9.902;2022-08-03T02:27:08;6.27;;;5.87;;
3997;SDS011;61314;53.444;9.902;2022-08-03T02:29:41;6.33;;;5.93;;
3997;SDS011;61314;53.444;9.902;2022-08-03T02:32:13;5.70;;;5.45;;
3997;SDS011;61314;53.444;9.902;2022-08-03T02:34:46;6.63;;;6.10;;
3997;SDS011;61314;53.444;9.902;2022-08-03T02:37:16;7.00;;;6.60;;
3997;SDS011;61314;53.444;9.902;2022-08-03T02:39:44;8.10;;;5.10;;
3997;SDS011;61314;53.444;9.902;2022-08-03T02:42:13;7.00;;;6.50;;
3997;SDS011;61314;53.444;9.902;2022-08-03T02:44:41;6.50;;;5.93;;
3997;SDS011;61314;53.444;9.902;2022-08-03T02:47:12;5.90;;;5.40;;
3997;SDS011;61314;53.444;9.902;2022-08-03T02:49:41;6.43;;;5.83;;
3997;SDS011;61314;53.444;9.902;2022-08-03T02:52:18;6.53;;;6.10;;
3997;SDS011;61314;53.444;9.902;2022-08-03T02:54:47;6.53;;;6.13;;
3997;SDS011;61314;53.444;9.902;2022-08-03T02:57:16;6.70;;;6.10;;
3997;SDS011;61314;53.444;9.902;2022-08-03T02:59:44;6.67;;;6.07;;
3997;SDS011;61314;53.444;9.902;2022-08-03T03:02:12;6.60;;;6.20;;
3997;SDS011;61314;53.444;9.902;2022-08-03T03:04:42;6.37;;;5.77;;
3997;SDS011;61314;53.444;9.902;2022-08-03T03:07:30;11.10;;;5.50;;
3997;SDS011;61314;53.444;9.902;2022-08-03T03:10:16;6.80;;;6.20;;
3997;SDS011;61314;53.444;9.902;2022-08-03T03:12:43;5.77;;;5.37;;
3997;SDS011;61314;53.444;9.902;2022-08-03T03:15:11;6.60;;;6.20;;
3997;SDS011;61314;53.444;9.902;2022-08-03T03:17:38;7.07;;;6.57;;
3997;SDS011;61314;53.444;9.902;2022-08-03T03:20:06;5.80;;;5.50;;
3997;SDS011;61314;53.444;9.902;2022-08-03T03:22:34;6.17;;;5.77;;
3997;SDS011;61314;53.444;9.902;2022-08-03T03:25:02;6.43;;;6.03;;
3997;SDS011;61314;53.444;9.902;2022-08-03T03:27:29;6.47;;;6.07;;
3997;SDS011;61314;53.444;9.902;2022-08-03T03:29:57;5.43;;;5.13;;
3997;SDS011;61314;53.444;9.902;2022-08-03T03:32:27;6.63;;;5.57;;
3997;SDS011;61314;53.444;9.902;2022-08-03T03:34:55;7.30;;;5.40;;
3997;SDS011;61314;53.444;9.902;2022-08-03T03:37:27;6.13;;;5.70;;
3997;SDS011;61314;53.444;9.902;2022-08-03T03:39:54;6.80;;;6.30;;
3997;SDS011;61314;53.444;9.902;2022-08-03T03:42:21;6.10;;;5.60;;
3997;SDS011;61314;53.444;9.902;2022-08-03T03:44:49;7.43;;;6.47;;
3997;SDS011;61314;53.444;9.902;2022-08-03T03:47:16;6.60;;;5.97;;
3997;SDS011;61314;53.444;9.902;2022-08-03T03:49:58;7.50;;;6.90;;
3997;SDS011;61314;53.444;9.902;2022-08-03T03:52:25;7.53;;;6.97;;
3997;SDS011;61314;53.444;9.902;2022-08-03T03:54:52;6.53;;;5.97;;
3997;SDS011;61314;53.444;9.902;2022-08-03T03:57:25;7.37;;;6.97;;
3997;SDS011;61314;53.444;9.902;2022-08-03T03:59:53;8.63;;;7.00;;
3997;SDS011;61314;53.444;9.902;2022-08-03T04:02:20;7.20;;;6.50;;
3997;SDS011;61314;53.444;9.902;2022-08-03T04:04:47;7.13;;;6.57;;
3997;SDS011;61314;53.444;9.902;2022-08-03T04:07:36;6.33;;;5.83;;
3997;SDS011;61314;53.444;9.902;2022-08-03T04:10:24;6.43;;;5.93;;
3997;SDS011;61314;53.444;9.902;2022-08-03T04:13:12;8.40;;;7.60;;
3997;SDS011;61314;53.444;9.902;2022-08-03T04:15:40;6.80;;;6.20;;
3997;SDS011;61314;53.444;9.902;2022-08-03T04:18:08;6.20;;;5.50;;
3997;SDS011;61314;53.444;9.902;2022-08-03T04:20:37;6.93;;;6.43;;
3997;SDS011;61314;53.444;9.902;2022-08-03T04:23:06;8.57;;;5.87;;
3997;SDS011;61314;53.444;9.902;2022-08-03T04:25:40;6.77;;;6.13;;
3997;SDS011;61314;53.444;9.902;2022-08-03T04:28:08;6.87;;;6.27;;
3997;SDS011;61314;53.444;9.902;2022-08-03T04:30:56;5.90;;;5.60;;
3997;SDS011;61314;53.444;9.902;2022-08-03T04:33:25;5.27;;;5.00;;
3997;SDS011;61314;53.444;9.902;2022-08-03T04:35:56;5.80;;;5.40;;
3997;SDS011;61314;53.444;9.902;2022-08-03T04:38:29;6.60;;;6.20;;
3997;SDS011;61314;53.444;9.902;2022-08-03T04:40:57;6.00;;;5.60;;
3997;SDS011;61314;53.444;9.902;2022-08-03T04:43:25;6.37;;;5.90;;
3997;SDS011;61314;53.444;9.902;2022-08-03T04:45:53;6.77;;;6.17;;
3997;SDS011;61314;53.444;9.902;2022-08-03T04:48:20;6.00;;;5.70;;
3997;SDS011;61314;53.444;9.902;2022-08-03T04:50:48;7.07;;;6.33;;
3997;SDS011;61314;53.444;9.902;2022-08-03T04:53:15;7.13;;;6.43;;
3997;SDS011;61314;53.444;9.902;2022-08-03T04:55:44;7.40;;;6.30;;
3997;SDS011;61314;53.444;9.902;2022-08-03T04:58:12;7.47;;;6.67;;
3997;SDS011;61314;53.444;9.902;2022-08-03T05:00:39;8.40;;;6.40;;
3997;SDS011;61314;53.444;9.902;2022-08-03T05:03:07;8.10;;;7.50;;
3997;SDS011;61314;53.444;9.902;2022-08-03T05:05:50;8.33;;;7.53;;
3997;SDS011;61314;53.444;9.902;2022-08-03T05:08:18;9.00;;;7.33;;
3997;SDS011;61314;53.444;9.902;2022-08-03T05:10:53;6.73;;;6.20;;
3997;SDS011;61314;53.444;9.902;2022-08-03T05:13:24;7.03;;;6.63;;
3997;SDS011;61314;53.444;9.902;2022-08-03T05:15:51;6.97;;;6.53;;
3997;SDS011;61314;53.444;9.902;2022-08-03T05:18:19;7.60;;;7.10;;
3997;SDS011;61314;53.444;9.902;2022-08-03T05:20:46;8.13;;;7.53;;
3997;SDS011;61314;53.444;9.902;2022-08-03T05:23:13;7.57;;;6.97;;
3997;SDS011;61314;53.444;9.902;2022-08-03T05:25:40;6.50;;;6.00;;
3997;SDS011;61314;53.444;9.902;2022-08-03T05:28:15;7.67;;;6.83;;
3997;SDS011;61314;53.444;9.902;2022-08-03T05:30:42;6.50;;;6.00;;
3997;SDS011;61314;53.444;9.902;2022-08-03T05:33:09;6.60;;;6.20;;
3997;SDS011;61314;53.444;9.902;2022-08-03T05:35:36;6.80;;;6.30;;
3997;SDS011;61314;53.444;9.902;2022-08-03T05:38:24;7.07;;;6.43;;
3997;SDS011;61314;53.444;9.902;2022-08-03T05:40:58;7.00;;;6.27;;
3997;SDS011;61314;53.444;9.902;2022-08-03T05:43:45;7.70;;;6.93;;
3997;SDS011;61314;53.444;9.902;2022-08-03T05:46:12;6.17;;;5.87;;
3997;SDS011;61314;53.444;9.902;2022-08-03T05:48:40;6.27;;;5.87;;
3997;SDS011;61314;53.444;9.902;2022-08-03T05:51:08;6.57;;;6.10;;
3997;SDS011;61314;53.444;9.902;2022-08-03T05:53:37;5.93;;;5.53;;
3997;SDS011;61314;53.444;9.902;2022-08-03T05:56:04;5.73;;;5.20;;
3997;SDS011;61314;53.444;9.902;2022-08-03T05:58:41;7.00;;;6.40;;
3997;SDS011;61314;53.444;9.902;2022-08-03T06:01:08;6.77;;;6.17;;
3997;SDS011;61314;53.444;9.902;2022-08-03T06:03:36;5.77;;;5.30;;
3997;SDS011;61314;53.444;9.902;2022-08-03T06:06:03;7.43;;;5.23;;
3997;SDS011;61314;53.444;9.902;2022-08-03T06:08:30;5.90;;;5.33;;
3997;SDS011;61314;53.444;9.902;2022-08-03T06:10:57;6.27;;;5.67;;
3997;SDS011;61314;53.444;9.902;2022-08-03T06:13:24;6.37;;;5.77;;
3997;SDS011;61314;53.444;9.902;2022-08-03T06:15:52;6.03;;;5.40;;
3997;SDS011;61314;53.444;9.902;2022-08-03T06:18:19;6.00;;;5.57;;
3997;SDS011;61314;53.444;9.902;2022-08-03T06:20:46;5.20;;;4.80;;
3997;SDS011;61314;53.444;9.902;2022-08-03T06:23:15;5.00;;;4.60;;
3997;SDS011;61314;53.444;9.902;2022-08-03T06:25:43;5.60;;;4.80;;
3997;SDS011;61314;53.444;9.902;2022-08-03T06:28:11;4.17;;;3.90;;
3997;SDS011;61314;53.444;9.902;2022-08-03T06:31:03;4.80;;;4.27;;
3997;SDS011;61314;53.444;9.902;2022-08-03T06:33:31;4.20;;;3.80;;
3997;SDS011;61314;53.444;9.902;2022-08-03T06:36:19;3.90;;;3.60;;
3997;SDS011;61314;53.444;9.902;2022-08-03T06:38:46;5.63;;;4.70;;
3997;SDS011;61314;53.444;9.902;2022-08-03T06:41:14;4.07;;;3.87;;
3997;SDS011;61314;53.444;9.902;2022-08-03T06:43:42;4.10;;;3.90;;
3997;SDS011;61314;53.444;9.902;2022-08-03T06:46:29;4.20;;;3.90;;
3997;SDS011;61314;53.444;9.902;2022-08-03T06:48:56;4.03;;;3.73;;
3997;SDS011;61314;53.444;9.902;2022-08-03T06:51:24;3.90;;;3.50;;
3997;SDS011;61314;53.444;9.902;2022-08-03T06:54:11;3.70;;;3.40;;
3997;SDS011;61314;53.444;9.902;2022-08-03T06:56:38;4.67;;;3.17;;
3997;SDS011;61314;53.444;9.902;2022-08-03T06:59:05;3.90;;;3.50;;
3997;SDS011;61314;53.444;9.902;2022-08-03T07:01:33;3.53;;;3.23;;
3997;SDS011;61314;53.444;9.902;2022-08-03T07:04:00;3.53;;;2.93;;
3997;SDS011;61314;53.444;9.902;2022-08-03T07:06:28;8.10;;;3.57;;
3997;SDS011;61314;53.444;9.902;2022-08-03T07:08:56;3.43;;;3.13;;
3997;SDS011;61314;53.444;9.902;2022-08-03T07:11:25;2.77;;;2.57;;
3997;SDS011;61314;53.444;9.902;2022-08-03T07:13:53;3.20;;;3.00;;
3997;SDS011;61314;53.444;9.902;2022-08-03T07:16:21;3.50;;;3.20;;
3997;SDS011;61314;53.444;9.902;2022-08-03T07:18:49;4.60;;;3.17;;
3997;SDS011;61314;53.444;9.902;2022-08-03T07:21:16;3.00;;;2.70;;
3997;SDS011;61314;53.444;9.902;2022-08-03T07:23:43;3.03;;;2.27;;
3997;SDS011;61314;53.444;9.902;2022-08-03T07:26:10;3.47;;;2.70;;
3997;SDS011;61314;53.444;9.902;2022-08-03T07:28:38;2.47;;;2.33;;
3997;SDS011;61314;53.444;9.902;2022-08-03T07:31:05;6.13;;;2.87;;
3997;SDS011;61314;53.444;9.902;2022-08-03T07:33:33;2.60;;;2.40;;
3997;SDS011;61314;53.444;9.902;2022-08-03T07:36:00;3.37;;;3.07;;
3997;SDS011;61314;53.444;9.902;2022-08-03T07:38:27;6.00;;;2.87;;
3997;SDS011;61314;53.444;9.902;2022-08-03T07:40:55;6.90;;;2.83;;
3997;SDS011;61314;53.444;9.902;2022-08-03T07:43:22;2.53;;;2.43;;
3997;SDS011;61314;53.444;9.902;2022-08-03T07:45:49;5.50;;;2.80;;
3997;SDS011;61314;53.444;9.902;2022-08-03T07:48:16;9.43;;;2.13;;
3997;SDS011;61314;53.444;9.902;2022-08-03T07:50:44;2.60;;;2.40;;
3997;SDS011;61314;53.444;9.902;2022-08-03T07:53:11;4.13;;;2.33;;
3997;SDS011;61314;53.444;9.902;2022-08-03T07:55:38;6.10;;;1.90;;
3997;SDS011;61314;53.444;9.902;2022-08-03T07:58:06;3.00;;;2.70;;
3997;SDS011;61314;53.444;9.902;2022-08-03T08:00:35;3.47;;;2.77;;
3997;SDS011;61314;53.444;9.902;2022-08-03T08:03:02;5.73;;;3.03;;
3997;SDS011;61314;53.444;9.902;2022-08-03T08:05:30;3.30;;;2.60;;
3997;SDS011;61314;53.444;9.902;2022-08-03T08:07:58;2.90;;;2.70;;
3997;SDS011;61314;53.444;9.902;2022-08-03T08:10:25;4.07;;;2.63;;
3997;SDS011;61314;53.444;9.902;2022-08-03T08:12:53;3.00;;;2.80;;
3997;SDS011;61314;53.444;9.902;2022-08-03T08:15:20;4.70;;;2.47;;
3997;SDS011;61314;53.444;9.902;2022-08-03T08:17:52;3.00;;;2.80;;
3997;SDS011;61314;53.444;9.902;2022-08-03T08:20:20;6.93;;;2.70;;
3997;SDS011;61314;53.444;9.902;2022-08-03T08:22:57;2.27;;;2.17;;
3997;SDS011;61314;53.444;9.902;2022-08-03T08:25:27;5.83;;;3.13;;
3997;SDS011;61314;53.444;9.902;2022-08-03T08:27:54;4.63;;;3.00;;
3997;SDS011;61314;53.444;9.902;2022-08-03T08:30:41;6.33;;;2.80;;
3997;SDS011;61314;53.444;9.902;2022-08-03T08:33:08;2.23;;;2.13;;
3997;SDS011;61314;53.444;9.902;2022-08-03T08:35:48;1.87;;;1.77;;
3997;SDS011;61314;53.444;9.902;2022-08-03T08:38:16;5.27;;;2.40;;
3997;SDS011;61314;53.444;9.902;2022-08-03T08:40:43;4.23;;;2.70;;
3997;SDS011;61314;53.444;9.902;2022-08-03T08:43:10;2.60;;;2.30;;
3997;SDS011;61314;53.444;9.902;2022-08-03T08:45:37;4.80;;;1.80;;
3997;SDS011;61314;53.444;9.902;2022-08-03T08:48:06;3.17;;;2.00;;
3997;SDS011;61314;53.444;9.902;2022-08-03T08:50:36;3.30;;;2.60;;
3997;SDS011;61314;53.444;9.902;2022-08-03T08:53:04;4.33;;;2.20;;
3997;SDS011;61314;53.444;9.902;2022-08-03T08:55:41;2.70;;;2.30;;
3997;SDS011;61314;53.444;9.902;2022-08-03T08:58:25;3.73;;;2.40;;
3997;SDS011;61314;53.444;9.902;2022-08-03T09:00:54;3.80;;;2.13;;
3997;SDS011;61314;53.444;9.902;2022-08-03T09:03:21;5.90;;;2.87;;
3997;SDS011;61314;53.444;9.902;2022-08-03T09:05:56;4.80;;;2.50;;
3997;SDS011;61314;53.444;9.902;2022-08-03T09:08:24;3.80;;;2.47;;
3997;SDS011;61314;53.444;9.902;2022-08-03T09:10:51;3.10;;;2.17;;
3997;SDS011;61314;53.444;9.902;2022-08-03T09:13:18;4.03;;;2.00;;
3997;SDS011;61314;53.444;9.902;2022-08-03T09:15:46;4.50;;;2.20;;
3997;SDS011;61314;53.444;9.902;2022-08-03T09:18:29;3.20;;;2.60;;
3997;SDS011;61314;53.444;9.902;2022-08-03T09:21:11;2.47;;;2.10;;
3997;SDS011;61314;53.444;9.902;2022-08-03T09:23:57;2.53;;;2.10;;
3997;SDS011;61314;53.444;9.902;2022-08-03T09:26:30;4.53;;;2.20;;
3997;SDS011;61314;53.444;9.902;2022-08-03T09:29:00;2.87;;;2.13;;
3997;SDS011;61314;53.444;9.902;2022-08-03T09:31:42;2.27;;;1.93;;
3997;SDS011;61314;53.444;9.902;2022-08-03T09:34:12;7.00;;;2.40;;
3997;SDS011;61314;53.444;9.902;2022-08-03T09:36:47;4.03;;;2.10;;
3997;SDS011;61314;53.444;9.902;2022-08-03T09:39:18;2.90;;;1.90;;
3997;SDS011;61314;53.444;9.902;2022-08-03T09:44:44;4.43;;;2.30;;
3997;SDS011;61314;53.444;9.902;2022-08-03T09:47:13;3.10;;;2.27;;
3997;SDS011;61314;53.444;9.902;2022-08-03T09:49:42;3.20;;;1.70;;
3997;SDS011;61314;53.444;9.902;2022-08-03T09:55:15;8.00;;;1.97;;
3997;SDS011;61314;53.444;9.902;2022-08-03T09:58:05;2.00;;;1.90;;
3997;SDS011;61314;53.444;9.902;2022-08-03T10:00:51;3.83;;;2.00;;
3997;SDS011;61314;53.444;9.902;2022-08-03T10:03:23;2.40;;;2.20;;
3997;SDS011;61314;53.444;9.902;2022-08-03T10:05:51;3.00;;;1.80;;
3997;SDS011;61314;53.444;9.902;2022-08-03T10:08:24;4.30;;;1.90;;
3997;SDS011;61314;53.444;9.902;2022-08-03T10:10:51;6.10;;;2.33;;
3997;SDS011;61314;53.444;9.902;2022-08-03T10:13:24;5.23;;;2.30;;
3997;SDS011;61314;53.444;9.902;2022-08-03T10:15:50;2.27;;;1.80;;
3997;SDS011;61314;53.444;9.902;2022-08-03T10:18:37;6.07;;;1.93;;
3997;SDS011;61314;53.444;9.902;2022-08-03T10:21:06;2.77;;;2.20;;
3997;SDS011;61314;53.444;9.902;2022-08-03T10:23:39;2.73;;;2.53;;
3997;SDS011;61314;53.444;9.902;2022-08-03T10:26:07;3.23;;;2.13;;
3997;SDS011;61314;53.444;9.902;2022-08-03T10:28:44;4.43;;;2.23;;
3997;SDS011;61314;53.444;9.902;2022-08-03T10:31:19;2.90;;;1.80;;
3997;SDS011;61314;53.444;9.902;2022-08-03T10:33:49;12.03;;;2.50;;
3997;SDS011;61314;53.444;9.902;2022-08-03T10:36:22;3.97;;;1.93;;
3997;SDS011;61314;53.444;9.902;2022-08-03T10:38:50;6.87;;;2.10;;
3997;SDS011;61314;53.444;9.902;2022-08-03T10:41:25;7.67;;;2.27;;
3997;SDS011;61314;53.444;9.902;2022-08-03T10:44:10;8.33;;;2.00;;
3997;SDS011;61314;53.444;9.902;2022-08-03T10:46:42;2.27;;;2.07;;
3997;SDS011;61314;53.444;9.902;2022-08-03T10:49:13;5.07;;;2.00;;
3997;SDS011;61314;53.444;9.902;2022-08-03T10:52:00;5.33;;;2.20;;
3997;SDS011;61314;53.444;9.902;2022-08-03T10:54:48;5.30;;;2.03;;
3997;SDS011;61314;53.444;9.902;2022-08-03T11:00:25;2.10;;;1.90;;
3997;SDS011;61314;53.444;9.902;2022-08-03T11:03:00;1.97;;;1.73;;
3997;SDS011;61314;53.444;9.902;2022-08-03T11:05:33;7.53;;;2.40;;
3997;SDS011;61314;53.444;9.902;2022-08-03T11:08:25;4.47;;;2.03;;
3997;SDS011;61314;53.444;9.902;2022-08-03T11:11:23;4.87;;;2.23;;
3997;SDS011;61314;53.444;9.902;2022-08-03T11:16:23;2.27;;;1.90;;
3997;SDS011;61314;53.444;9.902;2022-08-03T11:18:59;4.40;;;2.03;;
3997;SDS011;61314;53.444;9.902;2022-08-03T11:32:53;5.10;;;2.10;;
3997;SDS011;61314;53.444;9.902;2022-08-03T11:35:33;4.87;;;1.80;;
3997;SDS011;61314;53.444;9.902;2022-08-03T11:38:09;2.27;;;2.07;;
3997;SDS011;61314;53.444;9.902;2022-08-03T11:40:52;3.93;;;1.80;;
3997;SDS011;61314;53.444;9.902;2022-08-03T11:45:59;3.43;;;1.70;;
3997;SDS011;61314;53.444;9.902;2022-08-03T11:48:53;6.30;;;1.83;;
3997;SDS011;61314;53.444;9.902;2022-08-03T11:51:35;4.00;;;1.80;;
3997;SDS011;61314;53.444;9.902;2022-08-03T11:54:03;3.63;;;2.27;;
3997;SDS011;61314;53.444;9.902;2022-08-03T11:56:45;4.27;;;2.00;;
3997;SDS011;61314;53.444;9.902;2022-08-03T11:59:14;5.40;;;1.73;;
3997;SDS011;61314;53.444;9.902;2022-08-03T12:01:47;4.37;;;1.70;;
3997;SDS011;61314;53.444;9.902;2022-08-03T12:04:15;2.90;;;2.03;;
3997;SDS011;61314;53.444;9.902;2022-08-03T12:06:56;5.93;;;2.00;;
3997;SDS011;61314;53.444;9.902;2022-08-03T12:09:24;4.57;;;1.83;;
3997;SDS011;61314;53.444;9.902;2022-08-03T12:11:51;2.00;;;1.80;;
3997;SDS011;61314;53.444;9.902;2022-08-03T12:14:26;4.17;;;2.10;;
3997;SDS011;61314;53.444;9.902;2022-08-03T12:17:15;4.00;;;1.67;;
3997;SDS011;61314;53.444;9.902;2022-08-03T12:19:43;4.73;;;1.70;;
3997;SDS011;61314;53.444;9.902;2022-08-03T12:22:10;2.07;;;1.50;;
3997;SDS011;61314;53.444;9.902;2022-08-03T12:24:43;4.60;;;2.23;;
3997;SDS011;61314;53.444;9.902;2022-08-03T12:27:21;3.33;;;1.93;;
3997;SDS011;61314;53.444;9.902;2022-08-03T12:29:53;3.77;;;1.77;;
3997;SDS011;61314;53.444;9.902;2022-08-03T12:32:24;4.07;;;1.83;;
3997;SDS011;61314;53.444;9.902;2022-08-03T12:34:52;4.30;;;2.10;;
3997;SDS011;61314;53.444;9.902;2022-08-03T12:37:20;3.57;;;1.83;;
3997;SDS011;61314;53.444;9.902;2022-08-03T12:39:50;7.33;;;2.20;;
3997;SDS011;61314;53.444;9.902;2022-08-03T12:42:34;4.17;;;2.10;;
3997;SDS011;61314;53.444;9.902;2022-08-03T12:45:18;2.23;;;1.53;;
3997;SDS011;61314;53.444;9.902;2022-08-03T12:47:58;4.03;;;1.77;;
3997;SDS011;61314;53.444;9.902;2022-08-03T12:50:29;3.83;;;2.03;;
3997;SDS011;61314;53.444;9.902;2022-08-03T12:53:02;2.53;;;1.93;;
3997;SDS011;61314;53.444;9.902;2022-08-03T12:55:35;3.83;;;1.63;;
3997;SDS011;61314;53.444;9.902;2022-08-03T12:58:32;5.17;;;1.70;;
3997;SDS011;61314;53.444;9.902;2022-08-03T13:01:02;6.30;;;2.10;;
3997;SDS011;61314;53.444;9.902;2022-08-03T13:03:42;3.93;;;2.20;;
3997;SDS011;61314;53.444;9.902;2022-08-03T13:06:24;3.83;;;2.00;;
3997;SDS011;61314;53.444;9.902;2022-08-03T13:09:04;14.13;;;3.27;;
3997;SDS011;61314;53.444;9.902;2022-08-03T13:11:32;6.50;;;2.20;;
3997;SDS011;61314;53.444;9.902;2022-08-03T13:14:20;6.40;;;2.20;;
3997;SDS011;61314;53.444;9.902;2022-08-03T13:16:49;4.13;;;1.67;;
3997;SDS011;61314;53.444;9.902;2022-08-03T13:19:16;2.37;;;1.90;;
3997;SDS011;61314;53.444;9.902;2022-08-03T13:21:43;2.00;;;1.80;;
3997;SDS011;61314;53.444;9.902;2022-08-03T13:24:28;4.40;;;2.03;;
3997;SDS011;61314;53.444;9.902;2022-08-03T13:26:57;4.50;;;2.00;;
3997;SDS011;61314;53.444;9.902;2022-08-03T13:29:46;6.50;;;1.63;;
3997;SDS011;61314;53.444;9.902;2022-08-03T13:32:13;3.93;;;1.87;;
3997;SDS011;61314;53.444;9.902;2022-08-03T13:34:40;1.87;;;1.67;;
3997;SDS011;61314;53.444;9.902;2022-08-03T13:37:07;2.40;;;2.30;;
3997;SDS011;61314;53.444;9.902;2022-08-03T13:39:35;3.57;;;2.30;;
3997;SDS011;61314;53.444;9.902;2022-08-03T13:42:23;3.10;;;1.90;;
3997;SDS011;61314;53.444;9.902;2022-08-03T13:44:50;2.73;;;1.80;;
3997;SDS011;61314;53.444;9.902;2022-08-03T13:47:17;2.27;;;1.93;;
3997;SDS011;61314;53.444;9.902;2022-08-03T13:49:45;2.70;;;2.17;;
3997;SDS011;61314;53.444;9.902;2022-08-03T13:52:25;3.53;;;1.80;;
3997;SDS011;61314;53.444;9.902;2022-08-03T13:54:53;4.37;;;1.70;;
3997;SDS011;61314;53.444;9.902;2022-08-03T13:57:20;6.83;;;2.33;;
3997;SDS011;61314;53.444;9.902;2022-08-03T14:00:07;9.43;;;2.10;;
3997;SDS011;61314;53.444;9.902;2022-08-03T14:02:34;1.90;;;1.70;;
3997;SDS011;61314;53.444;9.902;2022-08-03T14:05:01;4.33;;;2.07;;
3997;SDS011;61314;53.444;9.902;2022-08-03T14:07:28;6.50;;;2.60;;
3997;SDS011;61314;53.444;9.902;2022-08-03T14:09:55;2.70;;;1.90;;
3997;SDS011;61314;53.444;9.902;2022-08-03T14:12:22;4.20;;;1.87;;
3997;SDS011;61314;53.444;9.902;2022-08-03T14:14:49;5.23;;;1.93;;
3997;SDS011;61314;53.444;9.902;2022-08-03T14:17:16;5.57;;;1.60;;
3997;SDS011;61314;53.444;9.902;2022-08-03T14:19:43;6.13;;;1.70;;
3997;SDS011;61314;53.444;9.902;2022-08-03T14:22:19;3.43;;;1.83;;
3997;SDS011;61314;53.444;9.902;2022-08-03T14:24:46;3.73;;;1.87;;
3997;SDS011;61314;53.444;9.902;2022-08-03T14:27:14;4.13;;;2.33;;
3997;SDS011;61314;53.444;9.902;2022-08-03T14:29:41;4.53;;;1.60;;
3997;SDS011;61314;53.444;9.902;2022-08-03T14:32:08;2.50;;;1.40;;
3997;SDS011;61314;53.444;9.902;2022-08-03T14:34:38;9.60;;;2.53;;
3997;SDS011;61314;53.444;9.902;2022-08-03T14:37:06;2.03;;;1.77;;
3997;SDS011;61314;53.444;9.902;2022-08-03T14:39:35;4.93;;;1.70;;
3997;SDS011;61314;53.444;9.902;2022-08-03T14:42:22;9.70;;;1.90;;
3997;SDS011;61314;53.444;9.902;2022-08-03T14:44:48;5.20;;;1.93;;
3997;SDS011;61314;53.444;9.902;2022-08-03T14:47:15;2.30;;;2.00;;
3997;SDS011;61314;53.444;9.902;2022-08-03T14:49:43;8.63;;;1.80;;
3997;SDS011;61314;53.444;9.902;2022-08-03T14:52:30;3.40;;;1.90;;
3997;SDS011;61314;53.444;9.902;2022-08-03T14:54:57;2.33;;;2.00;;
3997;SDS011;61314;53.444;9.902;2022-08-03T14:57:25;1.97;;;1.53;;
3997;SDS011;61314;53.444;9.902;2022-08-03T14:59:52;4.83;;;1.80;;
3997;SDS011;61314;53.444;9.902;2022-08-03T15:02:23;14.53;;;2.23;;
3997;SDS011;61314;53.444;9.902;2022-08-03T15:04:50;6.07;;;1.77;;
3997;SDS011;61314;53.444;9.902;2022-08-03T15:07:17;6.40;;;1.97;;
3997;SDS011;61314;53.444;9.902;2022-08-03T15:09:46;4.70;;;2.03;;
3997;SDS011;61314;53.444;9.902;2022-08-03T15:12:13;2.57;;;2.20;;
3997;SDS011;61314;53.444;9.902;2022-08-03T15:14:40;1.77;;;1.67;;
3997;SDS011;61314;53.444;9.902;2022-08-03T15:17:06;3.53;;;2.23;;
3997;SDS011;61314;53.444;9.902;2022-08-03T15:19:34;8.30;;;2.17;;
3997;SDS011;61314;53.444;9.902;2022-08-03T15:22:21;7.40;;;1.80;;
3997;SDS011;61314;53.444;9.902;2022-08-03T15:25:01;4.20;;;1.77;;
3997;SDS011;61314;53.444;9.902;2022-08-03T15:27:48;2.50;;;1.70;;
3997;SDS011;61314;53.444;9.902;2022-08-03T15:30:29;6.13;;;2.00;;
3997;SDS011;61314;53.444;9.902;2022-08-03T15:33:00;7.07;;;2.30;;
3997;SDS011;61314;53.444;9.902;2022-08-03T15:35:27;8.37;;;2.00;;
3997;SDS011;61314;53.444;9.902;2022-08-03T15:37:54;4.80;;;2.20;;
3997;SDS011;61314;53.444;9.902;2022-08-03T15:40:21;6.43;;;2.17;;
3997;SDS011;61314;53.444;9.902;2022-08-03T15:42:48;5.90;;;1.53;;
3997;SDS011;61314;53.444;9.902;2022-08-03T15:45:15;3.30;;;1.50;;
3997;SDS011;61314;53.444;9.902;2022-08-03T15:47:45;4.27;;;1.60;;
3997;SDS011;61314;53.444;9.902;2022-08-03T15:50:12;3.63;;;1.60;;
3997;SDS011;61314;53.444;9.902;2022-08-03T15:52:39;2.60;;;1.40;;
3997;SDS011;61314;53.444;9.902;2022-08-03T15:55:06;10.83;;;2.20;;
3997;SDS011;61314;53.444;9.902;2022-08-03T15:57:33;4.10;;;1.83;;
3997;SDS011;61314;53.444;9.902;2022-08-03T16:00:20;5.33;;;2.03;;
3997;SDS011;61314;53.444;9.902;2022-08-03T16:02:59;10.03;;;2.30;;
3997;SDS011;61314;53.444;9.902;2022-08-03T16:05:26;7.10;;;2.00;;